createdAt,value
2018-01-30T00:00:38.292Z,3.80
2018-01-30T00:03:07.517Z,2.93
2018-01-30T00:05:36.758Z,2.10
2018-01-30T00:08:05.982Z,2.30
2018-01-30T00:10:35.205Z,3.27
2018-01-30T00:13:04.402Z,3.00
2018-01-30T00:15:33.602Z,2.53
2018-01-30T00:18:02.818Z,3.10
2018-01-30T00:20:32.016Z,2.60
2018-01-30T00:23:01.310Z,3.40
2018-01-30T00:25:30.635Z,3.47
2018-01-30T00:28:00.591Z,2.70
2018-01-30T00:30:29.775Z,4.23
2018-01-30T00:32:59.047Z,3.80
2018-01-30T00:35:29.019Z,3.30
2018-01-30T00:37:58.346Z,3.27
2018-01-30T00:40:28.323Z,2.73
2018-01-30T00:42:57.534Z,3.43
2018-01-30T00:45:26.709Z,2.73
2018-01-30T00:47:56.029Z,3.07
2018-01-30T00:50:25.227Z,5.07
2018-01-30T00:52:54.403Z,2.90
2018-01-30T00:55:23.602Z,3.80
2018-01-30T00:57:54.381Z,2.93
2018-01-30T01:00:23.776Z,2.63
2018-01-30T01:02:53.088Z,3.83
2018-01-30T01:05:22.378Z,3.40
2018-01-30T01:07:52.347Z,3.53
2018-01-30T01:10:21.563Z,3.60
2018-01-30T01:12:50.824Z,3.50
2018-01-30T01:15:20.890Z,4.07
2018-01-30T01:17:50.095Z,3.83
2018-01-30T01:20:19.311Z,4.20
2018-01-30T01:22:49.362Z,4.00
2018-01-30T01:25:18.894Z,3.83
2018-01-30T01:27:48.113Z,4.80
2018-01-30T01:30:17.297Z,4.03
2018-01-30T01:32:46.667Z,3.80
2018-01-30T01:35:15.871Z,4.83
2018-01-30T01:37:45.093Z,3.93
2018-01-30T01:40:15.273Z,4.10
2018-01-30T01:42:46.182Z,3.80
2018-01-30T01:45:16.150Z,3.10
2018-01-30T01:47:45.418Z,4.00
2018-01-30T01:50:14.723Z,2.77
2018-01-30T01:52:43.931Z,2.73
2018-01-30T01:55:13.182Z,3.33
2018-01-30T01:57:42.365Z,2.93
2018-01-30T02:00:11.549Z,3.80
2018-01-30T02:02:40.766Z,3.50
2018-01-30T02:05:10.826Z,3.00
2018-01-30T02:07:40.098Z,3.00
2018-01-30T02:10:10.064Z,3.53
2018-01-30T02:12:39.278Z,2.97
2018-01-30T02:15:08.502Z,2.90
2018-01-30T02:17:37.728Z,4.60
2018-01-30T02:20:06.894Z,3.27
2018-01-30T02:22:36.090Z,3.50
2018-01-30T02:25:05.296Z,3.90
2018-01-30T02:27:35.310Z,3.40
2018-01-30T02:30:04.577Z,2.33
2018-01-30T02:32:34.586Z,2.30
2018-01-30T02:35:03.837Z,2.73
2018-01-30T02:37:33.834Z,2.77
2018-01-30T02:40:03.109Z,2.87
2018-01-30T02:42:32.342Z,3.30
2018-01-30T02:45:01.583Z,3.10
2018-01-30T02:47:30.869Z,3.77
2018-01-30T02:50:00.069Z,2.80
2018-01-30T02:52:29.311Z,3.17
2018-01-30T02:54:58.540Z,4.13
2018-01-30T02:57:28.530Z,3.23
2018-01-30T02:59:57.745Z,4.10
2018-01-30T03:02:27.017Z,3.80
2018-01-30T03:04:56.260Z,4.00
2018-01-30T03:07:26.219Z,3.50
2018-01-30T03:09:55.417Z,3.60
2018-01-30T03:12:24.631Z,3.60
2018-01-30T03:14:55.355Z,4.50
2018-01-30T03:17:24.590Z,3.30
2018-01-30T03:19:54.581Z,4.57
2018-01-30T03:22:23.839Z,5.50
2018-01-30T03:24:53.074Z,4.60
2018-01-30T03:27:22.296Z,6.23
2018-01-30T03:29:51.520Z,5.90
2018-01-30T03:32:20.790Z,5.60
2018-01-30T03:34:50.022Z,5.03
2018-01-30T03:37:19.274Z,5.93
2018-01-30T03:39:48.490Z,5.00
2018-01-30T03:42:18.479Z,5.60
2018-01-30T03:44:47.866Z,6.10
2018-01-30T03:47:17.110Z,5.53
2018-01-30T03:49:46.447Z,5.23
2018-01-30T03:52:15.666Z,5.10
2018-01-30T03:54:44.880Z,7.60
2018-01-30T03:57:14.266Z,6.40
2018-01-30T03:59:43.468Z,5.97
2018-01-30T04:02:12.669Z,6.73
2018-01-30T04:04:41.882Z,7.50
2018-01-30T04:07:11.882Z,7.10
2018-01-30T04:09:41.897Z,6.47
2018-01-30T04:12:12.710Z,7.10
2018-01-30T04:14:41.867Z,7.10
2018-01-30T04:17:11.195Z,7.40
2018-01-30T04:19:40.426Z,7.83
2018-01-30T04:22:09.635Z,8.10
2018-01-30T04:24:38.841Z,7.63
2018-01-30T04:27:08.811Z,8.60
2018-01-30T04:29:38.022Z,10.33
2018-01-30T04:32:07.256Z,8.60
2018-01-30T04:34:37.217Z,9.37
2018-01-30T04:37:06.442Z,9.77
2018-01-30T04:39:35.669Z,9.80
2018-01-30T04:42:05.166Z,9.97
2018-01-30T04:44:34.412Z,10.20
2018-01-30T04:47:03.662Z,10.93
2018-01-30T04:49:33.677Z,10.60
2018-01-30T04:52:03.652Z,11.67
2018-01-30T04:54:32.876Z,11.57
2018-01-30T04:57:02.092Z,12.90
2018-01-30T04:59:32.100Z,12.10
2018-01-30T05:02:01.369Z,11.97
2018-01-30T05:04:30.620Z,12.80
2018-01-30T05:06:59.883Z,13.27
2018-01-30T05:09:29.136Z,14.60
2018-01-30T05:11:58.475Z,13.57
2018-01-30T05:14:27.702Z,13.37
2018-01-30T05:16:58.411Z,13.97
2018-01-30T05:19:27.694Z,13.30
2018-01-30T05:21:57.095Z,14.57
2018-01-30T05:24:26.291Z,14.33
2018-01-30T05:26:55.603Z,13.60
2018-01-30T05:29:24.809Z,15.47
2018-01-30T05:31:54.060Z,15.60
2018-01-30T05:34:23.334Z,15.07
2018-01-30T05:36:53.354Z,14.10
2018-01-30T05:39:22.579Z,15.60
2018-01-30T05:41:51.791Z,16.90
2018-01-30T05:44:21.084Z,17.17
2018-01-30T05:46:50.386Z,19.23
2018-01-30T05:49:19.601Z,20.13
2018-01-30T05:51:48.956Z,17.00
2018-01-30T05:54:18.163Z,17.80
2018-01-30T05:56:47.376Z,18.27
2018-01-30T05:59:16.705Z,18.00
2018-01-30T06:01:45.940Z,18.70
2018-01-30T06:04:15.910Z,17.87
2018-01-30T06:06:45.120Z,18.17
2018-01-30T06:09:14.360Z,19.70
2018-01-30T06:11:43.558Z,18.60
2018-01-30T06:14:12.771Z,19.47
2018-01-30T06:16:42.002Z,17.00
2018-01-30T06:19:11.199Z,16.50
2018-01-30T06:21:40.406Z,17.73
2018-01-30T06:24:09.656Z,17.43
2018-01-30T06:26:38.923Z,18.17
2018-01-30T06:29:08.095Z,17.67
2018-01-30T06:31:37.334Z,19.13
2018-01-30T06:34:07.340Z,17.93
2018-01-30T06:36:37.313Z,18.33
2018-01-30T06:39:06.507Z,19.00
2018-01-30T06:41:35.722Z,17.27
2018-01-30T06:44:04.935Z,17.37
2018-01-30T06:46:34.188Z,18.57
2018-01-30T06:49:07.191Z,18.97
2018-01-30T06:51:37.312Z,19.30
2018-01-30T06:54:06.631Z,16.83
2018-01-30T06:56:36.676Z,18.33
2018-01-30T06:59:05.908Z,16.90
2018-01-30T07:01:35.157Z,16.63
2018-01-30T07:04:04.334Z,17.33
2018-01-30T07:06:34.368Z,18.30
2018-01-30T07:09:04.402Z,15.57
2018-01-30T07:11:34.371Z,16.43
2018-01-30T07:14:03.611Z,16.87
2018-01-30T07:16:33.588Z,16.70
2018-01-30T07:19:02.811Z,16.80
2018-01-30T07:21:32.790Z,16.90
2018-01-30T07:24:02.014Z,15.80
2018-01-30T07:26:31.220Z,16.47
2018-01-30T07:29:01.239Z,15.30
2018-01-30T07:31:31.235Z,16.70
2018-01-30T07:34:00.499Z,16.30
2018-01-30T07:36:29.699Z,17.77
2018-01-30T07:38:59.926Z,16.23
2018-01-30T07:41:29.210Z,16.50
2018-01-30T07:43:59.189Z,14.40
2018-01-30T07:46:29.393Z,16.80
2018-01-30T07:48:58.611Z,16.93
2018-01-30T07:51:28.637Z,17.80
2018-01-30T07:53:58.758Z,18.07
2018-01-30T07:56:28.730Z,15.23
2018-01-30T07:58:58.023Z,17.83
2018-01-30T08:01:27.264Z,16.80
2018-01-30T08:03:56.614Z,15.97
2018-01-30T08:06:25.841Z,15.60
2018-01-30T08:08:55.208Z,17.00
2018-01-30T08:11:24.443Z,16.90
2018-01-30T08:13:53.676Z,14.67
2018-01-30T08:16:22.979Z,15.23
2018-01-30T08:18:52.923Z,15.50
2018-01-30T08:21:22.964Z,14.43
2018-01-30T08:23:52.166Z,18.30
2018-01-30T08:26:21.354Z,16.60
2018-01-30T08:28:50.590Z,15.67
2018-01-30T08:31:19.983Z,17.80
2018-01-30T08:33:49.591Z,18.60
2018-01-30T08:36:19.567Z,17.83
2018-01-30T08:38:48.800Z,16.70
2018-01-30T08:41:18.814Z,17.27
2018-01-30T08:43:48.018Z,18.40
2018-01-30T08:46:17.495Z,16.83
2018-01-30T08:48:46.676Z,18.53
2018-01-30T08:51:15.890Z,20.20
2018-01-30T08:53:45.188Z,16.80
2018-01-30T08:56:14.426Z,20.97
2018-01-30T08:58:43.665Z,19.83
2018-01-30T09:01:12.958Z,20.37
2018-01-30T09:03:42.163Z,19.07
2018-01-30T09:06:11.419Z,20.03
2018-01-30T09:08:40.603Z,16.90
2018-01-30T09:11:10.594Z,16.93
2018-01-30T09:13:39.797Z,16.23
2018-01-30T09:16:09.029Z,16.47
2018-01-30T09:18:38.250Z,14.77
2018-01-30T09:21:07.521Z,17.37
2018-01-30T09:23:36.728Z,16.33
2018-01-30T09:26:05.960Z,15.50
2018-01-30T09:28:35.410Z,15.50
2018-01-30T09:31:04.940Z,16.17
2018-01-30T09:33:34.139Z,15.00
2018-01-30T09:36:03.398Z,14.70
2018-01-30T09:38:33.399Z,13.83
2018-01-30T09:41:02.614Z,15.33
2018-01-30T09:43:32.608Z,15.30
2018-01-30T09:46:01.858Z,13.67
2018-01-30T09:48:31.099Z,12.83
2018-01-30T09:51:00.307Z,13.87
2018-01-30T09:53:29.530Z,12.03
2018-01-30T09:55:59.514Z,12.07
2018-01-30T09:58:28.788Z,12.27
2018-01-30T10:00:58.808Z,11.60
2018-01-30T10:03:28.147Z,10.73
2018-01-30T10:05:57.370Z,12.23
2018-01-30T10:08:26.602Z,12.10
2018-01-30T10:10:55.855Z,11.07
2018-01-30T10:13:25.262Z,11.40
2018-01-30T10:15:54.476Z,10.23
2018-01-30T10:18:23.691Z,10.53
2018-01-30T10:20:52.903Z,9.83
2018-01-30T10:23:22.923Z,10.40
2018-01-30T10:25:52.910Z,10.97
2018-01-30T10:28:22.197Z,10.10
2018-01-30T10:30:51.466Z,10.87
2018-01-30T10:33:21.722Z,10.87
2018-01-30T10:35:51.326Z,11.37
2018-01-30T10:38:20.521Z,11.97
2018-01-30T10:40:49.732Z,11.33
2018-01-30T10:43:18.950Z,11.60
2018-01-30T10:45:48.183Z,10.90
2018-01-30T10:48:17.398Z,9.80
2018-01-30T10:50:46.595Z,9.80
2018-01-30T10:53:16.610Z,10.30
2018-01-30T10:55:45.846Z,10.90
2018-01-30T10:58:15.150Z,8.23
2018-01-30T11:00:44.399Z,9.03
2018-01-30T11:03:14.502Z,9.20
2018-01-30T11:05:45.458Z,9.80
2018-01-30T11:08:15.592Z,8.50
2018-01-30T11:10:44.822Z,9.03
2018-01-30T11:13:14.172Z,8.27
2018-01-30T11:15:43.847Z,8.60
2018-01-30T11:18:13.237Z,9.93
2018-01-30T11:20:42.497Z,8.50
2018-01-30T11:23:11.723Z,9.10
2018-01-30T11:25:41.011Z,10.53
2018-01-30T11:28:10.299Z,9.47
2018-01-30T11:30:40.996Z,10.60
2018-01-30T11:33:10.284Z,9.80
2018-01-30T11:35:39.607Z,10.53
2018-01-30T11:38:08.865Z,9.63
2018-01-30T11:40:38.172Z,9.90
2018-01-30T11:43:07.363Z,9.63
2018-01-30T11:45:36.620Z,9.93
2018-01-30T11:48:05.996Z,9.33
2018-01-30T11:50:35.975Z,9.60
2018-01-30T11:53:05.241Z,8.97
2018-01-30T11:55:35.249Z,9.67
2018-01-30T11:58:04.579Z,10.80
2018-01-30T12:00:34.089Z,11.30
2018-01-30T12:03:03.320Z,10.17
2018-01-30T12:05:34.159Z,8.70
2018-01-30T12:08:03.593Z,8.03
2018-01-30T12:10:32.898Z,9.43
2018-01-30T12:13:02.135Z,9.30
2018-01-30T12:15:31.376Z,7.23
2018-01-30T12:18:01.466Z,9.00
2018-01-30T12:20:30.680Z,8.03
2018-01-30T12:22:59.993Z,9.07
2018-01-30T12:25:29.225Z,8.40
2018-01-30T12:27:58.482Z,9.00
2018-01-30T12:30:28.497Z,9.10
2018-01-30T12:32:57.798Z,9.63
2018-01-30T12:35:27.857Z,9.90
2018-01-30T12:37:57.091Z,9.70
2018-01-30T12:40:26.299Z,10.53
2018-01-30T12:42:55.666Z,10.10
2018-01-30T12:45:24.854Z,9.30
2018-01-30T12:47:54.064Z,9.10
2018-01-30T12:50:23.600Z,10.37
2018-01-30T12:52:52.842Z,9.10
2018-01-30T12:55:22.067Z,9.80
2018-01-30T12:57:51.369Z,8.83
2018-01-30T13:00:20.619Z,8.77
2018-01-30T13:02:49.839Z,8.80
2018-01-30T13:05:19.107Z,10.27
2018-01-30T13:07:49.064Z,9.40
2018-01-30T13:10:18.311Z,9.40
2018-01-30T13:12:47.597Z,10.30
2018-01-30T13:15:16.866Z,10.47
2018-01-30T13:17:46.094Z,10.43
2018-01-30T13:20:15.332Z,10.90
2018-01-30T13:22:44.570Z,9.93
2018-01-30T13:25:13.792Z,9.83
2018-01-30T13:27:43.016Z,8.60
2018-01-30T13:30:13.239Z,9.90
2018-01-30T13:32:43.422Z,9.33
2018-01-30T13:35:12.654Z,8.63
2018-01-30T13:37:41.867Z,8.63
2018-01-30T13:40:11.078Z,10.63
2018-01-30T13:42:40.306Z,9.90
2018-01-30T13:45:11.046Z,11.20
2018-01-30T13:47:42.032Z,9.10
2018-01-30T13:50:11.254Z,10.27
2018-01-30T13:52:40.478Z,9.37
2018-01-30T13:55:12.074Z,9.43
2018-01-30T13:57:41.329Z,11.10
2018-01-30T14:00:10.743Z,10.37
2018-01-30T14:02:39.975Z,10.30
2018-01-30T14:05:09.979Z,10.50
2018-01-30T14:07:39.941Z,11.87
2018-01-30T14:10:09.213Z,12.30
2018-01-30T14:12:38.412Z,13.20
2018-01-30T14:15:07.656Z,12.00
2018-01-30T14:17:36.874Z,11.70
2018-01-30T14:20:06.893Z,12.47
2018-01-30T14:22:37.643Z,12.83
2018-01-30T14:25:06.880Z,10.67
2018-01-30T14:27:36.131Z,11.50
2018-01-30T14:30:06.123Z,11.33
2018-01-30T14:32:36.887Z,12.60
2018-01-30T14:35:06.914Z,13.47
2018-01-30T14:37:36.880Z,13.30
2018-01-30T14:40:06.905Z,12.70
2018-01-30T14:42:36.125Z,11.77
2018-01-30T14:45:06.132Z,11.70
2018-01-30T14:47:36.142Z,11.03
2018-01-30T14:50:05.336Z,11.50
2018-01-30T14:52:35.317Z,10.00
2018-01-30T14:55:04.621Z,11.50
2018-01-30T14:57:33.960Z,12.40
2018-01-30T15:00:03.142Z,10.63
2018-01-30T15:02:32.378Z,10.57
2018-01-30T15:05:02.351Z,11.47
2018-01-30T15:07:31.662Z,12.13
2018-01-30T15:10:00.871Z,11.03
2018-01-30T15:12:30.086Z,11.37
2018-01-30T15:14:59.321Z,11.60
2018-01-30T15:17:28.557Z,12.43
2018-01-30T15:19:58.582Z,10.13
2018-01-30T15:22:28.582Z,11.60
2018-01-30T15:24:57.828Z,12.20
2018-01-30T15:27:27.046Z,10.93
2018-01-30T15:29:56.294Z,12.07
2018-01-30T15:32:25.551Z,12.30
2018-01-30T15:34:54.817Z,12.87
2018-01-30T15:37:24.021Z,11.23
2018-01-30T15:39:53.279Z,11.97
2018-01-30T15:42:22.492Z,13.97
2018-01-30T15:44:51.734Z,11.70
2018-01-30T15:47:20.975Z,13.77
2018-01-30T15:49:50.235Z,11.87
2018-01-30T15:52:19.449Z,11.10
2018-01-30T15:54:48.690Z,11.90
2018-01-30T15:57:18.178Z,11.23
2018-01-30T15:59:47.426Z,12.40
2018-01-30T16:02:16.672Z,10.63
2018-01-30T16:04:46.704Z,10.53
2018-01-30T16:07:16.660Z,9.63
2018-01-30T16:09:45.903Z,9.87
2018-01-30T16:12:15.152Z,9.17
2018-01-30T16:14:44.346Z,9.60
2018-01-30T16:17:13.597Z,9.53
2018-01-30T16:19:43.587Z,9.40
2018-01-30T16:22:12.826Z,8.90
2018-01-30T16:24:42.040Z,9.70
2018-01-30T16:27:12.014Z,9.00
2018-01-30T16:29:41.211Z,9.80
2018-01-30T16:32:12.056Z,8.27
2018-01-30T16:34:42.075Z,10.70
2018-01-30T16:37:12.095Z,9.07
2018-01-30T16:39:42.080Z,9.03
2018-01-30T16:42:11.290Z,9.30
2018-01-30T16:44:40.539Z,10.00
2018-01-30T16:47:09.757Z,9.93
2018-01-30T16:49:40.112Z,9.83
2018-01-30T16:52:09.337Z,10.47
2018-01-30T16:54:39.320Z,10.27
2018-01-30T16:57:08.535Z,10.60
2018-01-30T16:59:38.546Z,10.67
2018-01-30T17:02:07.815Z,12.40
2018-01-30T17:04:37.151Z,12.43
2018-01-30T17:07:07.145Z,11.40
2018-01-30T17:09:36.383Z,12.17
2018-01-30T17:12:05.634Z,12.47
2018-01-30T17:14:34.899Z,11.13
2018-01-30T17:17:04.115Z,11.37
2018-01-30T17:19:33.566Z,10.83
2018-01-30T17:22:03.789Z,12.03
2018-01-30T17:24:33.755Z,11.00
2018-01-30T17:27:03.324Z,11.13
2018-01-30T17:29:32.632Z,11.90
2018-01-30T17:32:02.623Z,10.87
2018-01-30T17:34:32.630Z,11.00
2018-01-30T17:37:01.885Z,12.43
2018-01-30T17:39:31.126Z,10.13
2018-01-30T17:42:00.366Z,11.13
2018-01-30T17:44:29.577Z,11.33
2018-01-30T17:46:58.841Z,12.87
2018-01-30T17:49:28.133Z,11.20
2018-01-30T17:51:57.383Z,10.50
2018-01-30T17:54:26.579Z,11.07
2018-01-30T17:56:55.816Z,11.03
2018-01-30T17:59:25.799Z,10.70
2018-01-30T18:01:55.010Z,11.10
2018-01-30T18:04:24.227Z,9.97
2018-01-30T18:06:54.260Z,11.57
2018-01-30T18:09:24.451Z,10.47
2018-01-30T18:11:53.808Z,10.43
2018-01-30T18:14:23.016Z,10.47
2018-01-30T18:16:52.256Z,10.03
2018-01-30T18:19:22.258Z,10.20
2018-01-30T18:21:51.588Z,9.57
2018-01-30T18:24:20.820Z,9.83
2018-01-30T18:26:50.032Z,10.73
2018-01-30T18:29:19.278Z,9.53
2018-01-30T18:31:49.282Z,10.27
2018-01-30T18:34:19.325Z,11.80
2018-01-30T18:36:48.571Z,10.40
2018-01-30T18:39:17.830Z,8.77
2018-01-30T18:41:47.074Z,10.37
2018-01-30T18:44:16.352Z,10.80
2018-01-30T18:46:45.550Z,9.67
2018-01-30T18:49:14.758Z,11.77
2018-01-30T18:51:44.059Z,9.47
2018-01-30T18:54:13.298Z,11.60
2018-01-30T18:56:42.555Z,10.50
2018-01-30T18:59:11.809Z,10.73
2018-01-30T19:01:41.072Z,11.60
2018-01-30T19:04:10.282Z,11.67
2018-01-30T19:06:41.015Z,11.13
2018-01-30T19:09:11.087Z,11.80
2018-01-30T19:11:40.350Z,10.63
2018-01-30T19:14:09.629Z,11.50
2018-01-30T19:16:39.635Z,12.97
2018-01-30T19:19:09.623Z,11.90
2018-01-30T19:21:39.299Z,13.20
2018-01-30T19:24:09.312Z,12.00
2018-01-30T19:26:38.589Z,11.90
2018-01-30T19:29:08.615Z,12.60
2018-01-30T19:31:38.675Z,11.80
2018-01-30T19:34:07.914Z,11.87
2018-01-30T19:36:37.899Z,13.73
2018-01-30T19:39:07.180Z,12.63
2018-01-30T19:41:36.417Z,13.30
2018-01-30T19:44:06.427Z,14.67
2018-01-30T19:46:35.670Z,13.40
2018-01-30T19:49:04.906Z,14.13
2018-01-30T19:51:34.285Z,13.33
2018-01-30T19:54:03.560Z,12.77
2018-01-30T19:56:32.812Z,12.60
2018-01-30T19:59:02.063Z,15.03
2018-01-30T20:01:31.318Z,12.33
2018-01-30T20:04:00.603Z,12.30
2018-01-30T20:06:29.904Z,13.53
2018-01-30T20:08:59.210Z,14.47
2018-01-30T20:11:28.743Z,12.80
2018-01-30T20:13:58.727Z,11.70
2018-01-30T20:16:28.252Z,11.07
2018-01-30T20:18:58.395Z,13.10
2018-01-30T20:21:27.705Z,12.73
2018-01-30T20:23:57.812Z,11.90
2018-01-30T20:26:32.570Z,11.70
2018-01-30T20:29:02.515Z,12.80
2018-01-30T20:31:32.711Z,12.37
2018-01-30T20:34:02.696Z,11.20
2018-01-30T20:36:32.087Z,12.33
2018-01-30T20:39:01.313Z,11.67
2018-01-30T20:41:30.555Z,10.47
2018-01-30T20:43:59.822Z,9.70
2018-01-30T20:46:29.024Z,10.27
2018-01-30T20:48:58.285Z,9.67
2018-01-30T20:51:28.277Z,9.30
2018-01-30T20:53:58.306Z,9.40
2018-01-30T20:56:28.339Z,8.40
2018-01-30T20:58:57.569Z,8.40
2018-01-30T21:01:26.831Z,8.67
2018-01-30T21:03:56.158Z,7.70
2018-01-30T21:06:25.367Z,7.63
2018-01-30T21:08:54.604Z,7.20
2018-01-30T21:11:24.623Z,7.03
2018-01-30T21:13:54.633Z,6.50
2018-01-30T21:16:24.614Z,6.90
2018-01-30T21:18:53.896Z,8.37
2018-01-30T21:21:23.230Z,7.10
2018-01-30T21:23:52.721Z,7.83
2018-01-30T21:26:22.463Z,7.40
2018-01-30T21:28:51.670Z,8.77
2018-01-30T21:31:20.927Z,7.37
2018-01-30T21:33:50.134Z,7.43
2018-01-30T21:36:19.366Z,7.90
2018-01-30T21:38:49.523Z,7.63
2018-01-30T21:41:18.750Z,8.40
2018-01-30T21:43:47.967Z,7.87
2018-01-30T21:46:17.200Z,7.33
2018-01-30T21:48:47.167Z,7.83
2018-01-30T21:51:16.405Z,7.40
2018-01-30T21:53:46.460Z,8.30
2018-01-30T21:56:16.698Z,7.27
2018-01-30T21:58:46.011Z,8.03
2018-01-30T22:01:15.239Z,6.40
2018-01-30T22:03:45.237Z,7.70
2018-01-30T22:06:14.515Z,6.40
2018-01-30T22:08:43.727Z,6.93
2018-01-30T22:11:13.019Z,6.20
2018-01-30T22:13:42.220Z,7.30
2018-01-30T22:16:12.210Z,6.67
2018-01-30T22:18:41.404Z,6.50
2018-01-30T22:21:10.621Z,5.73
2018-01-30T22:23:39.880Z,6.83
2018-01-30T22:26:09.130Z,6.53
2018-01-30T22:28:38.357Z,6.67
2018-01-30T22:31:07.570Z,5.97
2018-01-30T22:33:36.786Z,5.73
2018-01-30T22:36:06.060Z,6.13
2018-01-30T22:38:35.222Z,6.33
2018-01-30T22:41:04.427Z,5.77
2018-01-30T22:43:34.425Z,5.90
2018-01-30T22:46:03.721Z,6.80
